sensor_id;sensor_type;location;lat;lon;timestamp;pressure;altitude;pressure_sealevel;temperature;humidity
60417;BME280;46263;44.726;10.396;2022-07-04T00:02:08;100306.28;;;25.80;65.17
60417;BME280;46263;44.726;10.396;2022-07-04T00:04:33;100304.81;;;25.83;66.03
60417;BME280;46263;44.726;10.396;2022-07-04T00:06:59;100304.09;;;25.95;65.70
60417;BME280;46263;44.726;10.396;2022-07-04T00:09:24;100299.88;;;25.97;65.99
60417;BME280;46263;44.726;10.396;2022-07-04T00:11:49;100297.41;;;26.04;65.42
60417;BME280;46263;44.726;10.396;2022-07-04T00:14:14;100303.66;;;26.13;65.02
60417;BME280;46263;44.726;10.396;2022-07-04T00:16:39;100297.88;;;26.06;65.14
60417;BME280;46263;44.726;10.396;2022-07-04T00:19:05;100300.72;;;25.89;65.29
60417;BME280;46263;44.726;10.396;2022-07-04T00:21:30;100301.94;;;25.71;66.75
60417;BME280;46263;44.726;10.396;2022-07-04T00:23:56;100309.41;;;25.62;67.87
60417;BME280;46263;44.726;10.396;2022-07-04T00:26:22;100309.91;;;25.64;68.17
60417;BME280;46263;44.726;10.396;2022-07-04T00:28:47;100315.56;;;25.50;69.39
60417;BME280;46263;44.726;10.396;2022-07-04T00:31:12;100311.53;;;25.56;69.42
60417;BME280;46263;44.726;10.396;2022-07-04T00:33:37;100305.75;;;25.40;70.33
60417;BME280;46263;44.726;10.396;2022-07-04T00:36:03;100308.63;;;25.44;69.52
60417;BME280;46263;44.726;10.396;2022-07-04T00:38:28;100311.59;;;25.39;69.77
60417;BME280;46263;44.726;10.396;2022-07-04T00:40:53;100315.09;;;25.48;69.28
60417;BME280;46263;44.726;10.396;2022-07-04T00:43:22;100309.34;;;25.79;68.33
60417;BME280;46263;44.726;10.396;2022-07-04T00:45:48;100313.22;;;25.86;68.07
60417;BME280;46263;44.726;10.396;2022-07-04T00:48:13;100317.06;;;25.94;67.34
60417;BME280;46263;44.726;10.396;2022-07-04T00:50:40;100315.66;;;25.79;66.71
60417;BME280;46263;44.726;10.396;2022-07-04T00:53:06;100314.75;;;25.58;67.12
60417;BME280;46263;44.726;10.396;2022-07-04T00:55:31;100308.28;;;25.54;67.56
60417;BME280;46263;44.726;10.396;2022-07-04T00:57:57;100305.06;;;25.52;67.88
60417;BME280;46263;44.726;10.396;2022-07-04T01:00:23;100305.44;;;25.33;68.72
60417;BME280;46263;44.726;10.396;2022-07-04T01:02:48;100298.69;;;25.13;69.80
60417;BME280;46263;44.726;10.396;2022-07-04T01:05:14;100305.63;;;25.28;69.31
60417;BME280;46263;44.726;10.396;2022-07-04T01:07:39;100309.41;;;25.53;68.54
60417;BME280;46263;44.726;10.396;2022-07-04T01:10:05;100303.19;;;25.35;68.81
60417;BME280;46263;44.726;10.396;2022-07-04T01:12:30;100307.97;;;25.55;69.14
60417;BME280;46263;44.726;10.396;2022-07-04T01:14:56;100297.91;;;25.68;68.61
60417;BME280;46263;44.726;10.396;2022-07-04T01:17:21;100302.75;;;25.71;68.70
60417;BME280;46263;44.726;10.396;2022-07-04T01:19:46;100304.41;;;25.46;71.47
60417;BME280;46263;44.726;10.396;2022-07-04T01:22:11;100301.09;;;25.23;71.13
60417;BME280;46263;44.726;10.396;2022-07-04T01:24:37;100299.78;;;25.38;67.20
60417;BME280;46263;44.726;10.396;2022-07-04T01:27:02;100313.16;;;25.48;66.77
60417;BME280;46263;44.726;10.396;2022-07-04T01:29:28;100316.94;;;25.35;67.06
60417;BME280;46263;44.726;10.396;2022-07-04T01:31:53;100326.81;;;25.36;67.28
60417;BME280;46263;44.726;10.396;2022-07-04T01:34:19;100322.44;;;25.18;68.28
60417;BME280;46263;44.726;10.396;2022-07-04T01:36:44;100321.97;;;24.90;68.15
60417;BME280;46263;44.726;10.396;2022-07-04T01:39:10;100324.41;;;24.83;65.82
60417;BME280;46263;44.726;10.396;2022-07-04T01:41:35;100331.19;;;24.94;62.39
60417;BME280;46263;44.726;10.396;2022-07-04T01:44:01;100325.69;;;24.94;59.05
60417;BME280;46263;44.726;10.396;2022-07-04T01:46:26;100325.56;;;24.99;58.03
60417;BME280;46263;44.726;10.396;2022-07-04T01:48:51;100335.25;;;24.97;57.99
60417;BME280;46263;44.726;10.396;2022-07-04T01:51:17;100333.78;;;24.90;56.92
60417;BME280;46263;44.726;10.396;2022-07-04T01:53:42;100339.59;;;25.15;55.89
60417;BME280;46263;44.726;10.396;2022-07-04T01:56:07;100335.56;;;25.12;55.87
60417;BME280;46263;44.726;10.396;2022-07-04T01:58:32;100334.28;;;25.01;55.98
60417;BME280;46263;44.726;10.396;2022-07-04T02:00:58;100323.44;;;25.05;56.95
60417;BME280;46263;44.726;10.396;2022-07-04T02:03:41;100303.41;;;25.04;57.42
60417;BME280;46263;44.726;10.396;2022-07-04T02:06:07;100299.16;;;25.15;58.81
60417;BME280;46263;44.726;10.396;2022-07-04T02:08:32;100299.63;;;25.26;56.82
60417;BME280;46263;44.726;10.396;2022-07-04T02:11:16;100291.81;;;25.45;55.13
60417;BME280;46263;44.726;10.396;2022-07-04T02:13:42;100291.03;;;25.36;55.95
60417;BME280;46263;44.726;10.396;2022-07-04T02:16:07;100280.38;;;25.26;58.40
60417;BME280;46263;44.726;10.396;2022-07-04T02:18:32;100282.00;;;25.27;57.84
60417;BME280;46263;44.726;10.396;2022-07-04T02:20:57;100289.13;;;25.28;56.51
60417;BME280;46263;44.726;10.396;2022-07-04T02:23:23;100283.19;;;24.83;56.96
60417;BME280;46263;44.726;10.396;2022-07-04T02:25:48;100283.03;;;24.79;56.90
60417;BME280;46263;44.726;10.396;2022-07-04T02:28:13;100286.44;;;24.50;57.29
60417;BME280;46263;44.726;10.396;2022-07-04T02:30:38;100289.72;;;24.13;57.60
60417;BME280;46263;44.726;10.396;2022-07-04T02:33:04;100283.59;;;24.16;57.90
60417;BME280;46263;44.726;10.396;2022-07-04T02:35:29;100287.16;;;24.16;58.56
60417;BME280;46263;44.726;10.396;2022-07-04T02:37:54;100285.03;;;24.05;60.17
60417;BME280;46263;44.726;10.396;2022-07-04T02:40:19;100291.81;;;24.07;60.85
60417;BME280;46263;44.726;10.396;2022-07-04T02:42:45;100293.28;;;24.13;60.73
60417;BME280;46263;44.726;10.396;2022-07-04T02:45:10;100299.69;;;23.92;61.32
60417;BME280;46263;44.726;10.396;2022-07-04T02:47:35;100295.97;;;23.87;61.04
60417;BME280;46263;44.726;10.396;2022-07-04T02:50:01;100303.63;;;23.68;59.21
60417;BME280;46263;44.726;10.396;2022-07-04T02:52:29;100298.47;;;23.67;58.35
60417;BME280;46263;44.726;10.396;2022-07-04T02:54:54;100308.28;;;23.68;56.78
60417;BME280;46263;44.726;10.396;2022-07-04T02:57:20;100303.97;;;23.67;55.37
60417;BME280;46263;44.726;10.396;2022-07-04T02:59:45;100313.00;;;24.15;53.81
60417;BME280;46263;44.726;10.396;2022-07-04T03:02:10;100318.09;;;24.00;53.32
60417;BME280;46263;44.726;10.396;2022-07-04T03:04:36;100319.81;;;24.27;52.49
60417;BME280;46263;44.726;10.396;2022-07-04T03:07:04;100324.34;;;24.31;53.95
60417;BME280;46263;44.726;10.396;2022-07-04T03:09:30;100326.00;;;24.49;53.73
60417;BME280;46263;44.726;10.396;2022-07-04T03:11:55;100324.84;;;24.33;53.11
60417;BME280;46263;44.726;10.396;2022-07-04T03:14:20;100324.19;;;24.28;54.13
60417;BME280;46263;44.726;10.396;2022-07-04T03:16:45;100325.34;;;24.35;55.92
60417;BME280;46263;44.726;10.396;2022-07-04T03:19:11;100325.25;;;24.09;57.58
60417;BME280;46263;44.726;10.396;2022-07-04T03:21:36;100322.19;;;24.11;57.75
60417;BME280;46263;44.726;10.396;2022-07-04T03:24:02;100319.66;;;24.32;56.56
60417;BME280;46263;44.726;10.396;2022-07-04T03:26:28;100322.28;;;23.97;56.14
60417;BME280;46263;44.726;10.396;2022-07-04T03:28:54;100320.56;;;24.10;55.96
60417;BME280;46263;44.726;10.396;2022-07-04T03:31:20;100323.34;;;24.18;55.22
60417;BME280;46263;44.726;10.396;2022-07-04T03:33:45;100333.97;;;24.11;57.66
60417;BME280;46263;44.726;10.396;2022-07-04T03:36:10;100344.00;;;24.16;57.94
60417;BME280;46263;44.726;10.396;2022-07-04T03:38:36;100336.91;;;24.15;57.62
60417;BME280;46263;44.726;10.396;2022-07-04T03:41:01;100329.66;;;24.19;58.98
60417;BME280;46263;44.726;10.396;2022-07-04T03:43:26;100338.97;;;24.09;59.64
60417;BME280;46263;44.726;10.396;2022-07-04T03:45:51;100339.34;;;23.77;60.39
60417;BME280;46263;44.726;10.396;2022-07-04T03:48:17;100333.22;;;23.27;63.25
60417;BME280;46263;44.726;10.396;2022-07-04T03:50:42;100337.78;;;23.31;63.75
60417;BME280;46263;44.726;10.396;2022-07-04T03:53:07;100332.16;;;23.59;62.99
60417;BME280;46263;44.726;10.396;2022-07-04T03:55:32;100343.47;;;23.43;64.79
60417;BME280;46263;44.726;10.396;2022-07-04T03:57:58;100344.06;;;23.32;65.30
60417;BME280;46263;44.726;10.396;2022-07-04T04:00:23;100345.75;;;23.19;66.35
60417;BME280;46263;44.726;10.396;2022-07-04T04:02:48;100336.69;;;23.41;66.24
60417;BME280;46263;44.726;10.396;2022-07-04T04:05:14;100333.09;;;23.32;67.23
60417;BME280;46263;44.726;10.396;2022-07-04T04:07:52;100334.03;;;23.27;68.17
60417;BME280;46263;44.726;10.396;2022-07-04T04:10:18;100337.47;;;23.55;67.59
60417;BME280;46263;44.726;10.396;2022-07-04T04:12:43;100339.28;;;23.68;68.92
60417;BME280;46263;44.726;10.396;2022-07-04T04:15:08;100334.19;;;23.84;68.38
60417;BME280;46263;44.726;10.396;2022-07-04T04:17:34;100337.22;;;23.74;69.47
60417;BME280;46263;44.726;10.396;2022-07-04T04:19:59;100342.56;;;23.79;69.43
60417;BME280;46263;44.726;10.396;2022-07-04T04:22:24;100335.09;;;23.62;68.58
60417;BME280;46263;44.726;10.396;2022-07-04T04:24:49;100337.53;;;23.72;67.73
60417;BME280;46263;44.726;10.396;2022-07-04T04:27:15;100330.84;;;23.56;67.64
60417;BME280;46263;44.726;10.396;2022-07-04T04:29:40;100327.81;;;23.35;68.42
60417;BME280;46263;44.726;10.396;2022-07-04T04:32:05;100338.72;;;23.27;68.56
60417;BME280;46263;44.726;10.396;2022-07-04T04:34:34;100330.34;;;23.54;67.63
60417;BME280;46263;44.726;10.396;2022-07-04T04:36:59;100336.34;;;23.34;65.63
60417;BME280;46263;44.726;10.396;2022-07-04T04:39:24;100341.31;;;23.54;65.45
60417;BME280;46263;44.726;10.396;2022-07-04T04:41:50;100337.84;;;23.71;65.66
60417;BME280;46263;44.726;10.396;2022-07-04T04:44:15;100337.41;;;23.77;63.76
60417;BME280;46263;44.726;10.396;2022-07-04T04:46:40;100341.41;;;23.71;64.16
60417;BME280;46263;44.726;10.396;2022-07-04T04:49:06;100330.69;;;24.01;63.68
60417;BME280;46263;44.726;10.396;2022-07-04T04:51:31;100332.06;;;24.20;62.93
60417;BME280;46263;44.726;10.396;2022-07-04T04:53:56;100330.34;;;24.33;63.83
60417;BME280;46263;44.726;10.396;2022-07-04T04:56:21;100331.19;;;23.94;65.22
60417;BME280;46263;44.726;10.396;2022-07-04T04:58:47;100326.69;;;24.07;64.99
60417;BME280;46263;44.726;10.396;2022-07-04T05:01:12;100323.63;;;24.08;66.19
60417;BME280;46263;44.726;10.396;2022-07-04T05:03:37;100320.22;;;24.03;62.91
60417;BME280;46263;44.726;10.396;2022-07-04T05:06:03;100337.41;;;24.26;61.73
60417;BME280;46263;44.726;10.396;2022-07-04T05:08:28;100339.91;;;24.53;61.82
60417;BME280;46263;44.726;10.396;2022-07-04T05:10:53;100345.47;;;24.22;62.45
60417;BME280;46263;44.726;10.396;2022-07-04T05:13:19;100346.38;;;24.57;61.83
60417;BME280;46263;44.726;10.396;2022-07-04T05:15:44;100341.34;;;24.59;63.68
60417;BME280;46263;44.726;10.396;2022-07-04T05:18:11;100335.53;;;24.61;62.12
60417;BME280;46263;44.726;10.396;2022-07-04T05:20:36;100325.88;;;24.72;63.02
60417;BME280;46263;44.726;10.396;2022-07-04T05:23:01;100335.72;;;24.64;60.78
60417;BME280;46263;44.726;10.396;2022-07-04T05:28:29;100333.94;;;24.60;62.00
60417;BME280;46263;44.726;10.396;2022-07-04T05:30:54;100330.88;;;24.52;61.68
60417;BME280;46263;44.726;10.396;2022-07-04T05:33:19;100337.34;;;24.74;61.70
60417;BME280;46263;44.726;10.396;2022-07-04T05:35:45;100338.94;;;24.83;58.95
60417;BME280;46263;44.726;10.396;2022-07-04T05:38:10;100339.31;;;24.99;59.35
60417;BME280;46263;44.726;10.396;2022-07-04T05:40:35;100342.22;;;25.03;58.06
60417;BME280;46263;44.726;10.396;2022-07-04T05:43:01;100345.78;;;25.12;58.50
60417;BME280;46263;44.726;10.396;2022-07-04T05:45:26;100339.94;;;25.05;56.65
60417;BME280;46263;44.726;10.396;2022-07-04T05:47:51;100355.44;;;25.35;56.80
60417;BME280;46263;44.726;10.396;2022-07-04T05:50:17;100346.06;;;25.36;55.51
60417;BME280;46263;44.726;10.396;2022-07-04T05:52:42;100349.41;;;25.42;55.08
60417;BME280;46263;44.726;10.396;2022-07-04T05:55:10;100345.03;;;25.58;55.14
60417;BME280;46263;44.726;10.396;2022-07-04T05:57:35;100345.03;;;25.67;55.99
60417;BME280;46263;44.726;10.396;2022-07-04T06:00:01;100341.94;;;25.68;57.22
60417;BME280;46263;44.726;10.396;2022-07-04T06:02:27;100348.91;;;25.66;55.96
60417;BME280;46263;44.726;10.396;2022-07-04T06:04:52;100342.06;;;25.72;54.81
60417;BME280;46263;44.726;10.396;2022-07-04T06:07:17;100339.41;;;25.93;52.61
60417;BME280;46263;44.726;10.396;2022-07-04T06:09:43;100336.75;;;26.05;51.48
60417;BME280;46263;44.726;10.396;2022-07-04T06:12:09;100343.97;;;26.18;50.25
60417;BME280;46263;44.726;10.396;2022-07-04T06:14:34;100349.44;;;26.27;49.94
60417;BME280;46263;44.726;10.396;2022-07-04T06:16:59;100354.59;;;26.28;48.66
60417;BME280;46263;44.726;10.396;2022-07-04T06:19:25;100351.69;;;26.33;49.61
60417;BME280;46263;44.726;10.396;2022-07-04T06:21:50;100352.78;;;26.41;49.41
60417;BME280;46263;44.726;10.396;2022-07-04T06:24:15;100356.00;;;26.43;49.40
60417;BME280;46263;44.726;10.396;2022-07-04T06:26:40;100346.56;;;26.52;49.89
60417;BME280;46263;44.726;10.396;2022-07-04T06:29:06;100346.34;;;26.57;48.63
60417;BME280;46263;44.726;10.396;2022-07-04T06:31:31;100341.25;;;26.68;48.66
60417;BME280;46263;44.726;10.396;2022-07-04T06:33:56;100345.69;;;26.81;48.62
60417;BME280;46263;44.726;10.396;2022-07-04T06:36:40;100341.03;;;26.73;48.54
60417;BME280;46263;44.726;10.396;2022-07-04T06:39:05;100341.09;;;26.85;48.30
60417;BME280;46263;44.726;10.396;2022-07-04T06:41:31;100346.50;;;26.82;48.37
60417;BME280;46263;44.726;10.396;2022-07-04T06:43:56;100343.47;;;26.96;48.92
60417;BME280;46263;44.726;10.396;2022-07-04T06:46:21;100342.59;;;27.04;48.68
60417;BME280;46263;44.726;10.396;2022-07-04T06:48:47;100344.47;;;27.12;48.62
60417;BME280;46263;44.726;10.396;2022-07-04T06:51:12;100349.88;;;27.08;48.12
60417;BME280;46263;44.726;10.396;2022-07-04T06:53:40;100346.47;;;27.23;47.72
60417;BME280;46263;44.726;10.396;2022-07-04T06:56:05;100346.00;;;27.21;48.72
60417;BME280;46263;44.726;10.396;2022-07-04T06:58:30;100351.47;;;27.42;49.00
60417;BME280;46263;44.726;10.396;2022-07-04T07:00:55;100343.06;;;27.39;47.80
60417;BME280;46263;44.726;10.396;2022-07-04T07:03:21;100350.53;;;27.38;48.31
60417;BME280;46263;44.726;10.396;2022-07-04T07:05:46;100344.91;;;27.35;48.94
60417;BME280;46263;44.726;10.396;2022-07-04T07:08:11;100350.50;;;27.26;48.75
60417;BME280;46263;44.726;10.396;2022-07-04T07:10:37;100343.06;;;27.39;49.32
60417;BME280;46263;44.726;10.396;2022-07-04T07:13:02;100344.69;;;27.52;50.11
60417;BME280;46263;44.726;10.396;2022-07-04T07:15:27;100339.72;;;27.66;49.77
60417;BME280;46263;44.726;10.396;2022-07-04T07:17:53;100341.47;;;27.50;49.69
60417;BME280;46263;44.726;10.396;2022-07-04T07:20:18;100347.66;;;27.35;50.60
60417;BME280;46263;44.726;10.396;2022-07-04T07:22:43;100345.00;;;27.71;50.27
60417;BME280;46263;44.726;10.396;2022-07-04T07:25:09;100329.81;;;27.65;50.82
60417;BME280;46263;44.726;10.396;2022-07-04T07:27:35;100342.28;;;27.96;50.52
60417;BME280;46263;44.726;10.396;2022-07-04T07:30:00;100348.00;;;28.03;50.35
60417;BME280;46263;44.726;10.396;2022-07-04T07:32:25;100347.44;;;28.09;50.34
60417;BME280;46263;44.726;10.396;2022-07-04T07:34:51;100346.56;;;28.30;50.28
60417;BME280;46263;44.726;10.396;2022-07-04T07:37:16;100337.53;;;28.45;51.25
60417;BME280;46263;44.726;10.396;2022-07-04T07:39:43;100342.41;;;28.23;49.37
60417;BME280;46263;44.726;10.396;2022-07-04T07:42:08;100348.59;;;28.45;49.59
60417;BME280;46263;44.726;10.396;2022-07-04T07:44:33;100345.94;;;28.48;49.57
60417;BME280;46263;44.726;10.396;2022-07-04T07:46:58;100337.72;;;28.64;49.30
60417;BME280;46263;44.726;10.396;2022-07-04T07:49:24;100340.41;;;28.48;49.57
60417;BME280;46263;44.726;10.396;2022-07-04T07:51:49;100329.59;;;28.43;51.06
60417;BME280;46263;44.726;10.396;2022-07-04T07:54:14;100337.41;;;28.53;51.27
60417;BME280;46263;44.726;10.396;2022-07-04T07:56:42;100341.97;;;28.62;51.50
60417;BME280;46263;44.726;10.396;2022-07-04T07:59:07;100332.81;;;28.58;51.57
60417;BME280;46263;44.726;10.396;2022-07-04T08:01:32;100332.88;;;28.61;51.81
60417;BME280;46263;44.726;10.396;2022-07-04T08:03:58;100328.59;;;28.23;52.65
60417;BME280;46263;44.726;10.396;2022-07-04T08:06:42;100329.13;;;28.41;53.65
60417;BME280;46263;44.726;10.396;2022-07-04T08:09:07;100337.88;;;28.43;53.77
60417;BME280;46263;44.726;10.396;2022-07-04T08:11:32;100340.66;;;28.43;53.56
60417;BME280;46263;44.726;10.396;2022-07-04T08:13:58;100343.13;;;28.61;52.63
60417;BME280;46263;44.726;10.396;2022-07-04T08:16:23;100337.06;;;28.43;51.32
60417;BME280;46263;44.726;10.396;2022-07-04T08:18:48;100336.16;;;28.91;50.31
60417;BME280;46263;44.726;10.396;2022-07-04T08:21:14;100328.06;;;28.98;49.59
60417;BME280;46263;44.726;10.396;2022-07-04T08:23:39;100328.94;;;29.14;50.31
60417;BME280;46263;44.726;10.396;2022-07-04T08:26:05;100327.63;;;28.96;50.23
60417;BME280;46263;44.726;10.396;2022-07-04T08:28:30;100326.59;;;28.88;50.18
60417;BME280;46263;44.726;10.396;2022-07-04T08:30:56;100336.34;;;29.26;50.12
60417;BME280;46263;44.726;10.396;2022-07-04T08:33:21;100332.84;;;29.41;50.91
60417;BME280;46263;44.726;10.396;2022-07-04T08:35:47;100335.72;;;29.45;48.27
60417;BME280;46263;44.726;10.396;2022-07-04T08:38:12;100338.41;;;29.29;49.06
60417;BME280;46263;44.726;10.396;2022-07-04T08:40:37;100337.81;;;29.36;49.36
60417;BME280;46263;44.726;10.396;2022-07-04T08:43:02;100337.47;;;29.37;49.09
60417;BME280;46263;44.726;10.396;2022-07-04T08:45:28;100329.09;;;29.21;51.30
60417;BME280;46263;44.726;10.396;2022-07-04T08:47:57;100330.00;;;29.10;49.91
60417;BME280;46263;44.726;10.396;2022-07-04T08:50:31;100326.97;;;28.87;50.35
60417;BME280;46263;44.726;10.396;2022-07-04T08:53:02;100330.63;;;28.91;51.03
60417;BME280;46263;44.726;10.396;2022-07-04T08:55:28;100337.81;;;28.80;51.88
60417;BME280;46263;44.726;10.396;2022-07-04T08:58:12;100328.03;;;28.82;50.50
60417;BME280;46263;44.726;10.396;2022-07-04T09:00:57;100332.59;;;28.90;50.26
60417;BME280;46263;44.726;10.396;2022-07-04T09:03:23;100344.09;;;29.20;50.27
60417;BME280;46263;44.726;10.396;2022-07-04T09:05:48;100358.81;;;29.37;49.47
60417;BME280;46263;44.726;10.396;2022-07-04T09:08:14;100361.69;;;29.40;49.41
60417;BME280;46263;44.726;10.396;2022-07-04T09:10:39;100368.72;;;29.38;47.65
60417;BME280;46263;44.726;10.396;2022-07-04T09:13:05;100362.97;;;29.74;47.91
60417;BME280;46263;44.726;10.396;2022-07-04T09:15:30;100361.75;;;30.19;47.89
60417;BME280;46263;44.726;10.396;2022-07-04T09:17:56;100367.69;;;29.58;49.81
60417;BME280;46263;44.726;10.396;2022-07-04T09:20:22;100359.03;;;29.60;49.79
60417;BME280;46263;44.726;10.396;2022-07-04T09:22:48;100363.78;;;29.59;50.14
60417;BME280;46263;44.726;10.396;2022-07-04T09:25:14;100363.13;;;29.50;50.44
60417;BME280;46263;44.726;10.396;2022-07-04T09:27:41;100374.09;;;29.46;51.25
60417;BME280;46263;44.726;10.396;2022-07-04T09:30:09;100366.88;;;29.42;51.63
60417;BME280;46263;44.726;10.396;2022-07-04T09:35:04;100355.03;;;29.29;52.60
60417;BME280;46263;44.726;10.396;2022-07-04T09:37:40;100347.56;;;28.89;53.57
60417;BME280;46263;44.726;10.396;2022-07-04T09:40:08;100340.59;;;29.08;54.09
60417;BME280;46263;44.726;10.396;2022-07-04T09:42:37;100350.66;;;29.00;53.96
60417;BME280;46263;44.726;10.396;2022-07-04T09:45:06;100344.00;;;28.89;54.65
60417;BME280;46263;44.726;10.396;2022-07-04T09:47:31;100344.63;;;28.82;55.74
60417;BME280;46263;44.726;10.396;2022-07-04T09:49:57;100346.06;;;28.92;55.12
60417;BME280;46263;44.726;10.396;2022-07-04T09:52:22;100340.97;;;29.22;55.15
60417;BME280;46263;44.726;10.396;2022-07-04T09:54:48;100326.66;;;29.04;55.47
60417;BME280;46263;44.726;10.396;2022-07-04T09:57:16;100336.81;;;29.28;55.48
60417;BME280;46263;44.726;10.396;2022-07-04T09:59:46;100339.66;;;29.16;55.72
60417;BME280;46263;44.726;10.396;2022-07-04T10:02:12;100352.63;;;29.00;55.35
60417;BME280;46263;44.726;10.396;2022-07-04T10:04:46;100364.94;;;29.02;55.35
60417;BME280;46263;44.726;10.396;2022-07-04T10:07:29;100368.91;;;29.17;54.20
60417;BME280;46263;44.726;10.396;2022-07-04T10:09:55;100350.28;;;29.14;54.45
60417;BME280;46263;44.726;10.396;2022-07-04T10:12:27;100354.19;;;28.85;55.14
60417;BME280;46263;44.726;10.396;2022-07-04T10:14:56;100364.50;;;28.88;55.48
60417;BME280;46263;44.726;10.396;2022-07-04T10:17:21;100371.22;;;28.87;55.49
60417;BME280;46263;44.726;10.396;2022-07-04T10:19:46;100382.13;;;28.96;55.28
60417;BME280;46263;44.726;10.396;2022-07-04T10:22:12;100392.28;;;28.92;56.12
60417;BME280;46263;44.726;10.396;2022-07-04T10:24:38;100390.09;;;28.97;55.21
60417;BME280;46263;44.726;10.396;2022-07-04T10:27:03;100392.56;;;29.14;56.29
60417;BME280;46263;44.726;10.396;2022-07-04T10:29:28;100391.91;;;29.05;55.34
60417;BME280;46263;44.726;10.396;2022-07-04T10:31:54;100396.97;;;29.03;55.05
60417;BME280;46263;44.726;10.396;2022-07-04T10:34:19;100406.00;;;29.28;54.75
60417;BME280;46263;44.726;10.396;2022-07-04T10:36:50;100404.38;;;29.27;54.27
60417;BME280;46263;44.726;10.396;2022-07-04T10:39:21;100401.22;;;29.13;54.88
60417;BME280;46263;44.726;10.396;2022-07-04T10:41:56;100409.22;;;29.30;54.12
60417;BME280;46263;44.726;10.396;2022-07-04T10:44:23;100401.81;;;29.62;53.62
60417;BME280;46263;44.726;10.396;2022-07-04T10:46:50;100400.47;;;30.00;52.40
60417;BME280;46263;44.726;10.396;2022-07-04T10:49:18;100402.31;;;30.59;50.63
60417;BME280;46263;44.726;10.396;2022-07-04T10:51:44;100397.31;;;30.17;50.67
60417;BME280;46263;44.726;10.396;2022-07-04T10:56:50;100397.66;;;30.82;49.97
60417;BME280;46263;44.726;10.396;2022-07-04T11:01:45;100394.03;;;30.97;48.32
60417;BME280;46263;44.726;10.396;2022-07-04T11:04:11;100387.31;;;31.37;48.16
60417;BME280;46263;44.726;10.396;2022-07-04T11:11:58;100381.13;;;32.87;47.96
60417;BME280;46263;44.726;10.396;2022-07-04T11:16:56;100363.72;;;32.98;46.01
60417;BME280;46263;44.726;10.396;2022-07-04T11:19:21;100369.28;;;32.98;44.84
60417;BME280;46263;44.726;10.396;2022-07-04T11:21:47;100362.22;;;33.04;43.27
60417;BME280;46263;44.726;10.396;2022-07-04T11:24:12;100361.13;;;33.45;41.62
60417;BME280;46263;44.726;10.396;2022-07-04T11:26:37;100355.19;;;33.47;41.61
60417;BME280;46263;44.726;10.396;2022-07-04T11:29:03;100351.91;;;33.38;42.15
60417;BME280;46263;44.726;10.396;2022-07-04T11:31:41;100364.75;;;32.82;42.34
60417;BME280;46263;44.726;10.396;2022-07-04T11:34:06;100363.50;;;32.24;43.52
60417;BME280;46263;44.726;10.396;2022-07-04T11:36:32;100361.16;;;33.15;42.59
60417;BME280;46263;44.726;10.396;2022-07-04T11:39:01;100351.84;;;33.01;42.85
60417;BME280;46263;44.726;10.396;2022-07-04T11:41:31;100353.06;;;32.20;43.71
60417;BME280;46263;44.726;10.396;2022-07-04T11:44:16;100347.41;;;32.66;42.59
60417;BME280;46263;44.726;10.396;2022-07-04T11:49:31;100337.25;;;33.11;41.80
60417;BME280;46263;44.726;10.396;2022-07-04T11:51:57;100327.78;;;32.26;42.86
60417;BME280;46263;44.726;10.396;2022-07-04T11:54:22;100332.94;;;33.54;41.62
60417;BME280;46263;44.726;10.396;2022-07-04T11:56:48;100336.94;;;33.97;40.98
60417;BME280;46263;44.726;10.396;2022-07-04T11:59:14;100333.69;;;33.92;40.16
60417;BME280;46263;44.726;10.396;2022-07-04T12:01:40;100323.50;;;33.66;39.10
60417;BME280;46263;44.726;10.396;2022-07-04T12:04:16;100314.56;;;34.45;38.74
60417;BME280;46263;44.726;10.396;2022-07-04T12:06:42;100305.94;;;34.78;38.65
60417;BME280;46263;44.726;10.396;2022-07-04T12:09:08;100305.16;;;34.12;38.15
60417;BME280;46263;44.726;10.396;2022-07-04T12:11:49;100301.59;;;33.64;38.74
60417;BME280;46263;44.726;10.396;2022-07-04T12:14:14;100302.72;;;33.56;38.70
60417;BME280;46263;44.726;10.396;2022-07-04T12:16:40;100296.22;;;33.85;38.79
60417;BME280;46263;44.726;10.396;2022-07-04T12:19:09;100295.16;;;34.77;38.30
60417;BME280;46263;44.726;10.396;2022-07-04T12:21:35;100292.91;;;35.14;38.81
60417;BME280;46263;44.726;10.396;2022-07-04T12:24:00;100300.47;;;33.72;38.08
60417;BME280;46263;44.726;10.396;2022-07-04T12:26:27;100293.69;;;33.70;37.02
60417;BME280;46263;44.726;10.396;2022-07-04T12:28:53;100293.41;;;34.40;36.76
60417;BME280;46263;44.726;10.396;2022-07-04T12:31:18;100297.50;;;34.61;35.87
60417;BME280;46263;44.726;10.396;2022-07-04T12:33:55;100287.75;;;35.20;35.53
60417;BME280;46263;44.726;10.396;2022-07-04T12:36:20;100280.03;;;34.09;35.95
60417;BME280;46263;44.726;10.396;2022-07-04T12:38:46;100283.09;;;34.48;35.60
60417;BME280;46263;44.726;10.396;2022-07-04T12:41:12;100268.97;;;35.10;35.85
60417;BME280;46263;44.726;10.396;2022-07-04T12:46:10;100265.31;;;34.81;36.58
60417;BME280;46263;44.726;10.396;2022-07-04T12:48:35;100260.47;;;34.74;35.21
60417;BME280;46263;44.726;10.396;2022-07-04T12:51:09;100254.88;;;34.64;34.61
60417;BME280;46263;44.726;10.396;2022-07-04T12:53:41;100255.19;;;34.48;35.11
60417;BME280;46263;44.726;10.396;2022-07-04T12:56:08;100244.28;;;35.86;34.63
60417;BME280;46263;44.726;10.396;2022-07-04T12:58:33;100237.00;;;36.21;32.51
60417;BME280;46263;44.726;10.396;2022-07-04T13:00:59;100241.88;;;35.85;33.27